createdAt,value
2023-05-07T00:01:43.837Z,4.60
2023-05-07T00:04:12.164Z,5.40
2023-05-07T00:06:40.718Z,5.05
2023-05-07T00:09:09.013Z,4.68
2023-05-07T00:11:37.403Z,4.85
2023-05-07T00:14:05.704Z,5.45
2023-05-07T00:16:33.885Z,5.82
2023-05-07T00:19:03.390Z,5.10
2023-05-07T00:21:31.806Z,4.93
2023-05-07T00:23:59.927Z,4.72
2023-05-07T00:26:28.068Z,5.10
2023-05-07T00:28:56.495Z,4.70
2023-05-07T00:31:24.630Z,4.32
2023-05-07T00:33:52.807Z,4.97
2023-05-07T00:36:22.556Z,4.22
2023-05-07T00:38:50.817Z,4.90
2023-05-07T00:41:19.203Z,5.47
2023-05-07T00:43:47.374Z,5.28
2023-05-07T00:46:17.190Z,4.85
2023-05-07T00:48:45.494Z,5.18
2023-05-07T00:51:14.278Z,4.85
2023-05-07T00:53:43.799Z,4.20
2023-05-07T00:56:12.726Z,5.07
2023-05-07T00:58:41.026Z,4.85
2023-05-07T01:01:09.229Z,4.57
2023-05-07T01:03:37.553Z,4.90
2023-05-07T01:06:09.244Z,4.85
2023-05-07T01:08:40.690Z,5.00
2023-05-07T01:11:11.741Z,4.97
2023-05-07T01:13:41.784Z,4.95
2023-05-07T01:16:11.791Z,4.95
2023-05-07T01:18:43.576Z,4.57
2023-05-07T01:21:13.865Z,4.60
2023-05-07T01:23:44.505Z,4.80
2023-05-07T01:26:12.798Z,4.28
2023-05-07T01:28:41.076Z,5.03
2023-05-07T01:31:11.349Z,4.72
2023-05-07T01:33:43.492Z,4.40
2023-05-07T01:36:13.721Z,4.18
2023-05-07T01:38:44.051Z,4.40
2023-05-07T01:41:13.993Z,4.53
2023-05-07T01:43:44.450Z,4.32
2023-05-07T01:46:14.341Z,4.68
2023-05-07T01:48:46.778Z,4.45
2023-05-07T01:51:15.076Z,4.43
2023-05-07T01:53:45.021Z,3.65
2023-05-07T01:56:13.108Z,3.83
2023-05-07T01:58:42.886Z,4.28
2023-05-07T02:01:11.060Z,4.18
2023-05-07T02:03:39.902Z,4.38
2023-05-07T02:06:14.455Z,4.55
2023-05-07T02:08:44.185Z,4.45
2023-05-07T02:11:13.706Z,4.07
2023-05-07T02:13:42.029Z,4.75
2023-05-07T02:16:10.238Z,4.10
2023-05-07T02:18:38.638Z,4.80
2023-05-07T02:21:06.909Z,4.43
2023-05-07T02:23:35.123Z,4.97
2023-05-07T02:26:06.776Z,4.70
2023-05-07T02:28:36.213Z,4.28
2023-05-07T02:31:06.269Z,4.63
2023-05-07T02:33:35.851Z,4.93
2023-05-07T02:36:09.980Z,4.97
2023-05-07T02:38:42.783Z,5.00
2023-05-07T02:41:12.268Z,4.50
2023-05-07T02:43:40.423Z,5.10
2023-05-07T02:46:11.053Z,4.95
2023-05-07T02:48:43.936Z,4.90
2023-05-07T02:51:11.986Z,4.88
2023-05-07T02:53:42.510Z,4.85
2023-05-07T02:56:12.005Z,4.88
2023-05-07T02:58:40.857Z,4.93
2023-05-07T03:05:41.633Z,5.43
2023-05-07T03:08:11.983Z,4.68
2023-05-07T03:10:40.529Z,5.90
2023-05-07T03:13:10.027Z,5.22
2023-05-07T03:15:38.203Z,5.65
2023-05-07T03:18:06.670Z,4.90
2023-05-07T03:20:34.943Z,5.32
2023-05-07T03:23:03.248Z,5.45
2023-05-07T03:25:31.835Z,5.30
2023-05-07T03:28:00.302Z,5.90
2023-05-07T03:30:37.833Z,4.82
2023-05-07T03:33:06.110Z,5.22
2023-05-07T03:35:34.672Z,5.40
2023-05-07T03:38:03.549Z,5.55
2023-05-07T03:40:35.240Z,5.35
2023-05-07T03:43:05.094Z,5.75
2023-05-07T03:45:35.177Z,6.00
2023-05-07T03:48:12.594Z,5.65
2023-05-07T03:50:40.866Z,5.53
2023-05-07T03:53:09.097Z,5.60
2023-05-07T03:55:40.597Z,5.25
2023-05-07T03:58:08.703Z,6.30
2023-05-07T04:00:39.241Z,6.03
2023-05-07T04:03:17.882Z,5.53
2023-05-07T04:05:46.077Z,6.28
2023-05-07T04:08:14.230Z,6.38
2023-05-07T04:10:47.672Z,6.15
2023-05-07T04:13:15.968Z,6.60
2023-05-07T04:15:44.514Z,6.00
2023-05-07T04:18:15.244Z,7.38
2023-05-07T04:20:47.385Z,7.25
2023-05-07T04:23:16.833Z,6.75
2023-05-07T04:25:46.147Z,6.97
2023-05-07T04:28:28.243Z,6.38
2023-05-07T04:30:56.630Z,7.22
2023-05-07T04:33:25.367Z,7.88
2023-05-07T04:35:54.874Z,8.35
2023-05-07T04:38:24.482Z,7.30
2023-05-07T04:40:54.708Z,7.57
2023-05-07T04:43:26.122Z,7.53
2023-05-07T04:45:54.391Z,7.68
2023-05-07T04:48:25.822Z,8.27
2023-05-07T04:50:56.485Z,9.05
2023-05-07T04:53:25.527Z,8.18
2023-05-07T04:55:58.667Z,8.77
2023-05-07T04:58:32.914Z,8.93
2023-05-07T05:01:01.948Z,9.02
2023-05-07T05:03:31.010Z,9.15
2023-05-07T05:06:01.347Z,9.60
2023-05-07T05:08:33.550Z,9.88
2023-05-07T05:11:03.761Z,9.25
2023-05-07T05:13:33.955Z,9.43
2023-05-07T05:16:06.959Z,9.35
2023-05-07T05:18:35.287Z,9.80
2023-05-07T05:21:05.112Z,10.45
2023-05-07T05:23:34.341Z,11.15
2023-05-07T05:26:02.797Z,10.75
2023-05-07T05:28:33.785Z,9.95
2023-05-07T05:31:02.452Z,10.88
2023-05-07T05:33:34.189Z,11.82
2023-05-07T05:36:08.272Z,11.48
2023-05-07T05:38:38.864Z,11.65
2023-05-07T05:41:07.803Z,11.88
2023-05-07T05:43:36.840Z,11.05
2023-05-07T05:46:05.401Z,11.77
2023-05-07T05:48:33.714Z,11.50
2023-05-07T05:51:03.526Z,12.82
2023-05-07T05:53:33.012Z,12.13
2023-05-07T05:56:01.561Z,12.02
2023-05-07T05:58:31.063Z,13.32
2023-05-07T06:01:04.515Z,11.73
2023-05-07T06:03:33.393Z,11.48
2023-05-07T06:06:04.689Z,12.77
2023-05-07T06:08:34.456Z,11.52
2023-05-07T06:11:04.459Z,12.40
2023-05-07T06:13:35.571Z,12.60
2023-05-07T06:16:03.741Z,11.75
2023-05-07T06:18:31.904Z,11.65
2023-05-07T06:21:00.348Z,11.43
2023-05-07T06:23:32.332Z,12.05
2023-05-07T06:26:03.041Z,12.32
2023-05-07T06:28:37.523Z,12.02
2023-05-07T06:31:16.593Z,10.88
2023-05-07T06:33:50.018Z,12.85
2023-05-07T06:36:18.725Z,12.00
2023-05-07T06:38:47.501Z,12.38
2023-05-07T06:41:18.323Z,12.75
2023-05-07T06:43:46.517Z,11.77
2023-05-07T06:46:42.547Z,11.38
2023-05-07T06:49:11.339Z,12.77
2023-05-07T06:51:39.446Z,12.15
2023-05-07T06:54:08.392Z,12.05
2023-05-07T06:56:40.311Z,11.60
2023-05-07T06:59:08.905Z,11.52
2023-05-07T07:01:41.409Z,11.65
2023-05-07T07:04:11.107Z,11.73
2023-05-07T07:06:41.315Z,10.60
2023-05-07T07:09:12.780Z,11.38
2023-05-07T07:11:43.320Z,11.68
2023-05-07T07:14:11.780Z,11.82
2023-05-07T07:17:07.083Z,11.70
2023-05-07T07:19:36.630Z,11.73
2023-05-07T07:22:06.135Z,11.77
2023-05-07T07:24:35.569Z,12.05
2023-05-07T07:27:59.616Z,11.15
2023-05-07T07:30:31.391Z,10.90
2023-05-07T07:33:04.521Z,12.25
2023-05-07T07:35:36.915Z,13.38
2023-05-07T07:38:07.408Z,11.68
2023-05-07T07:40:46.806Z,11.05
2023-05-07T07:43:16.829Z,11.60
2023-05-07T07:45:46.908Z,11.77
2023-05-07T07:48:15.418Z,11.93
2023-05-07T07:50:45.625Z,11.35
2023-05-07T07:53:17.641Z,12.55
2023-05-07T07:55:46.803Z,11.73
2023-05-07T07:58:24.521Z,11.70
2023-05-07T08:00:53.630Z,11.27
2023-05-07T08:03:22.349Z,12.63
2023-05-07T08:05:54.523Z,11.90
2023-05-07T08:08:23.202Z,12.57
2023-05-07T08:10:52.437Z,12.23
2023-05-07T08:13:29.937Z,12.27
2023-05-07T08:15:58.296Z,12.10
2023-05-07T08:18:30.084Z,12.48
2023-05-07T08:21:01.564Z,11.63
2023-05-07T08:23:30.064Z,12.27
2023-05-07T08:25:58.791Z,14.95
2023-05-07T08:28:29.238Z,12.15
2023-05-07T08:31:01.023Z,12.50
2023-05-07T08:33:33.391Z,13.23
2023-05-07T08:36:02.350Z,12.60
2023-05-07T08:38:31.557Z,12.30
2023-05-07T08:41:00.371Z,12.65
2023-05-07T08:43:36.766Z,12.75
2023-05-07T08:46:09.520Z,13.70
2023-05-07T08:48:41.708Z,12.77
2023-05-07T08:51:16.193Z,13.73
2023-05-07T08:53:46.175Z,12.57
2023-05-07T08:56:22.458Z,12.18
2023-05-07T08:58:57.497Z,13.35
2023-05-07T09:01:28.294Z,12.80
2023-05-07T09:04:02.829Z,12.73
2023-05-07T09:06:32.652Z,12.60
2023-05-07T09:09:04.096Z,11.32
2023-05-07T09:11:33.205Z,13.40
2023-05-07T09:14:05.506Z,12.43
2023-05-07T09:16:39.866Z,12.40
2023-05-07T09:19:08.685Z,12.48
2023-05-07T09:21:38.193Z,12.63
2023-05-07T09:24:10.803Z,12.50
2023-05-07T09:26:43.528Z,11.35
2023-05-07T09:29:21.293Z,11.93
2023-05-07T09:31:55.041Z,12.38
2023-05-07T09:34:27.110Z,11.85
2023-05-07T09:37:04.408Z,11.73
2023-05-07T09:39:50.580Z,12.65
2023-05-07T09:42:42.238Z,11.52
2023-05-07T09:45:13.294Z,10.10
2023-05-07T09:47:49.849Z,11.93
2023-05-07T09:50:37.179Z,12.15
2023-05-07T09:53:08.211Z,12.30
2023-05-07T09:55:37.161Z,10.80
2023-05-07T09:58:10.138Z,11.85
2023-05-07T10:00:46.122Z,11.75
2023-05-07T10:03:17.914Z,11.05
2023-05-07T10:05:56.238Z,12.45
2023-05-07T10:08:40.205Z,11.73
2023-05-07T10:11:11.287Z,10.63
2023-05-07T10:13:40.355Z,10.50
2023-05-07T10:16:13.403Z,10.77
2023-05-07T10:18:47.393Z,10.43
2023-05-07T10:21:23.631Z,10.30
2023-05-07T10:24:07.143Z,10.55
2023-05-07T10:27:11.158Z,10.63
2023-05-07T10:30:02.775Z,9.70
2023-05-07T10:32:49.245Z,11.88
2023-05-07T10:35:47.092Z,10.10
2023-05-07T10:38:17.136Z,10.68
2023-05-07T10:41:20.474Z,10.20
2023-05-07T10:43:51.490Z,9.90
2023-05-07T10:46:25.394Z,10.30
2023-05-07T10:49:12.426Z,10.65
2023-05-07T10:52:17.281Z,10.93
2023-05-07T10:55:23.340Z,11.15
2023-05-07T10:58:38.729Z,10.00
2023-05-07T11:01:56.327Z,9.68
2023-05-07T11:04:44.548Z,11.38
2023-05-07T11:07:32.339Z,10.68
2023-05-07T11:10:09.694Z,9.57
2023-05-07T11:12:57.488Z,8.93
2023-05-07T11:15:46.360Z,10.95
2023-05-07T11:18:22.196Z,8.35
2023-05-07T11:21:00.962Z,9.35
2023-05-07T11:24:00.663Z,8.70
2023-05-07T11:26:48.991Z,8.98
2023-05-07T11:29:22.552Z,9.63
2023-05-07T11:31:55.270Z,8.30
2023-05-07T11:34:28.574Z,8.77
2023-05-07T11:37:04.653Z,7.90
2023-05-07T11:39:48.758Z,7.95
2023-05-07T11:42:29.786Z,8.70
2023-05-07T11:44:58.447Z,7.63
2023-05-07T11:47:27.769Z,7.45
2023-05-07T11:49:57.196Z,8.55
2023-05-07T11:52:27.403Z,8.02
2023-05-07T11:54:58.924Z,8.20
2023-05-07T11:57:28.298Z,7.72
2023-05-07T11:59:57.130Z,7.70
2023-05-07T12:02:26.447Z,7.90
2023-05-07T12:04:55.877Z,8.30
2023-05-07T12:07:28.406Z,8.05
2023-05-07T12:09:57.291Z,7.70
2023-05-07T12:12:25.809Z,8.00
2023-05-07T12:14:57.880Z,8.25
2023-05-07T12:17:26.545Z,8.30
2023-05-07T12:19:56.080Z,7.03
2023-05-07T12:22:27.337Z,6.40
2023-05-07T12:26:07.452Z,7.70
2023-05-07T12:28:41.381Z,6.95
2023-05-07T12:31:10.387Z,7.65
2023-05-07T12:45:57.211Z,6.65
2023-05-07T12:48:28.004Z,6.13
2023-05-07T12:50:58.097Z,7.40
2023-05-07T12:53:28.453Z,7.55
2023-05-07T12:55:58.266Z,6.20
2023-05-07T12:58:29.034Z,6.47
2023-05-07T13:01:01.072Z,6.10
2023-05-07T13:03:33.695Z,6.18
2023-05-07T13:06:05.371Z,7.22
2023-05-07T13:08:35.475Z,6.82
2023-05-07T13:11:06.044Z,6.00
2023-05-07T13:13:36.190Z,6.43
2023-05-07T13:16:05.523Z,5.47
2023-05-07T13:18:36.671Z,5.72
2023-05-07T13:21:05.459Z,6.55
2023-05-07T13:23:33.820Z,5.90
2023-05-07T13:26:08.562Z,6.35
2023-05-07T13:28:44.578Z,6.07
2023-05-07T13:31:12.728Z,5.65
2023-05-07T13:33:42.546Z,6.60
2023-05-07T13:36:13.242Z,7.30
2023-05-07T13:38:41.450Z,6.07
2023-05-07T13:41:09.962Z,7.28
2023-05-07T13:43:38.150Z,5.95
2023-05-07T13:46:06.329Z,6.03
2023-05-07T13:48:34.435Z,5.90
2023-05-07T13:51:04.076Z,6.25
2023-05-07T13:53:32.233Z,5.68
2023-05-07T13:56:00.484Z,5.80
2023-05-07T13:58:28.582Z,5.68
2023-05-07T14:00:56.701Z,6.05
2023-05-07T14:03:25.204Z,6.22
2023-05-07T14:05:53.421Z,5.55
2023-05-07T14:08:22.968Z,6.75
2023-05-07T14:10:51.250Z,6.00
2023-05-07T14:13:19.764Z,5.75
2023-05-07T14:15:49.482Z,6.05
2023-05-07T14:18:23.556Z,6.68
2023-05-07T14:20:51.643Z,5.75
2023-05-07T14:23:27.461Z,6.65
2023-05-07T14:25:58.449Z,6.63
2023-05-07T14:28:27.058Z,6.07
2023-05-07T14:30:55.593Z,6.65
2023-05-07T14:33:24.188Z,6.43
2023-05-07T14:35:52.735Z,6.85
2023-05-07T14:38:36.530Z,6.53
2023-05-07T14:42:22.070Z,6.38
2023-05-07T14:44:50.680Z,6.15
2023-05-07T14:47:20.060Z,6.28
2023-05-07T14:49:48.468Z,6.03
2023-05-07T14:52:16.674Z,6.65
2023-05-07T14:54:46.192Z,5.88
2023-05-07T14:57:17.165Z,6.93
2023-05-07T14:59:45.466Z,6.03
2023-05-07T15:02:14.484Z,6.55
2023-05-07T15:04:46.748Z,6.97
2023-05-07T15:07:16.065Z,7.30
2023-05-07T15:09:46.695Z,6.85
2023-05-07T15:12:19.918Z,5.90
2023-05-07T15:15:03.892Z,6.85
2023-05-07T15:17:53.581Z,6.60
2023-05-07T15:20:34.285Z,6.50
2023-05-07T15:23:15.268Z,5.95
2023-05-07T15:25:52.634Z,6.63
2023-05-07T15:28:22.560Z,6.25
2023-05-07T15:31:00.156Z,5.78
2023-05-07T15:33:39.241Z,6.50
2023-05-07T15:36:13.208Z,6.47
2023-05-07T15:38:45.792Z,6.05
2023-05-07T15:41:25.201Z,6.15
2023-05-07T15:43:57.777Z,6.80
2023-05-07T15:46:38.553Z,6.20
2023-05-07T15:49:11.971Z,6.30
2023-05-07T15:51:43.497Z,5.97
2023-05-07T15:54:18.818Z,6.43
2023-05-07T15:56:57.618Z,6.20
2023-05-07T15:59:38.001Z,6.45
2023-05-07T16:02:11.801Z,5.50
2023-05-07T16:04:49.404Z,5.85
2023-05-07T16:07:22.956Z,6.07
2023-05-07T16:09:53.102Z,5.95
2023-05-07T16:12:28.940Z,6.07
2023-05-07T16:15:01.281Z,5.18
2023-05-07T16:17:30.387Z,5.90
2023-05-07T16:19:59.829Z,6.03
2023-05-07T16:22:37.021Z,5.32
2023-05-07T16:25:25.037Z,5.90
2023-05-07T16:28:44.729Z,6.15
2023-05-07T16:31:13.169Z,5.32
2023-05-07T16:33:41.443Z,5.35
2023-05-07T16:36:09.840Z,6.28
2023-05-07T16:38:38.603Z,5.43
2023-05-07T16:41:07.921Z,4.95
2023-05-07T16:43:36.039Z,5.38
2023-05-07T16:46:05.599Z,5.15
2023-05-07T16:48:33.774Z,4.70
2023-05-07T16:51:01.852Z,5.15
2023-05-07T16:53:30.125Z,4.80
2023-05-07T16:55:58.466Z,5.15
2023-05-07T16:58:27.251Z,4.90
2023-05-07T17:00:58.423Z,5.43
2023-05-07T17:03:28.953Z,5.28
2023-05-07T17:06:01.257Z,5.07
2023-05-07T17:08:32.744Z,5.30
2023-05-07T17:11:01.212Z,5.18
2023-05-07T17:13:29.723Z,4.95
2023-05-07T17:16:04.243Z,5.30
2023-05-07T17:18:45.425Z,4.43
2023-05-07T17:21:21.364Z,5.13
2023-05-07T17:23:49.687Z,4.97
2023-05-07T17:26:18.592Z,4.93
2023-05-07T17:28:46.798Z,5.28
2023-05-07T17:31:14.953Z,5.72
2023-05-07T17:33:44.515Z,5.53
2023-05-07T17:36:12.631Z,5.72
2023-05-07T17:38:40.872Z,4.80
2023-05-07T17:41:21.242Z,5.40
2023-05-07T17:43:54.225Z,4.72
2023-05-07T17:46:25.656Z,5.57
2023-05-07T17:48:56.840Z,4.93
2023-05-07T17:51:26.060Z,5.15
2023-05-07T17:53:59.521Z,5.35
2023-05-07T17:56:32.681Z,6.07
2023-05-07T17:59:04.032Z,5.70
2023-05-07T18:01:42.494Z,6.15
2023-05-07T18:04:12.389Z,7.15
2023-05-07T18:06:42.480Z,6.65
2023-05-07T18:09:16.720Z,6.75
2023-05-07T18:12:10.258Z,7.00
2023-05-07T18:14:44.728Z,6.55
2023-05-07T18:17:18.410Z,6.82
2023-05-07T18:23:41.488Z,7.50
2023-05-07T18:26:11.742Z,7.38
2023-05-07T18:28:45.881Z,7.88
2023-05-07T18:31:17.672Z,7.90
2023-05-07T18:33:52.483Z,7.95
2023-05-07T18:36:33.001Z,7.85
2023-05-07T18:39:01.407Z,8.18
2023-05-07T18:41:38.380Z,7.30
2023-05-07T18:44:11.069Z,9.60
2023-05-07T18:46:48.800Z,8.30
2023-05-07T18:49:17.475Z,8.45
2023-05-07T18:51:47.946Z,8.40
2023-05-07T18:54:20.817Z,8.90
2023-05-07T18:56:49.668Z,9.18
2023-05-07T18:59:37.088Z,8.85
2023-05-07T19:02:09.778Z,9.57
2023-05-07T19:04:38.212Z,8.00
2023-05-07T19:07:10.674Z,9.02
2023-05-07T19:09:41.147Z,9.52
2023-05-07T19:12:34.473Z,9.57
2023-05-07T19:15:06.340Z,9.32
2023-05-07T19:17:39.168Z,9.20
2023-05-07T19:20:10.645Z,8.73
2023-05-07T19:22:40.666Z,8.73
2023-05-07T19:25:10.061Z,9.07
2023-05-07T19:27:41.529Z,9.60
2023-05-07T19:30:14.252Z,8.90
2023-05-07T19:32:48.251Z,9.73
2023-05-07T19:35:16.796Z,9.88
2023-05-07T19:37:51.254Z,9.30
2023-05-07T19:40:27.691Z,10.15
2023-05-07T19:43:00.772Z,10.00
2023-05-07T19:46:24.194Z,9.93
2023-05-07T20:01:34.658Z,9.00
2023-05-07T20:04:03.179Z,9.15
2023-05-07T20:06:31.477Z,9.73
2023-05-07T20:08:59.570Z,8.13
2023-05-07T20:11:28.620Z,9.88
2023-05-07T20:13:56.762Z,8.65
2023-05-07T20:16:25.064Z,9.68
2023-05-07T20:18:55.744Z,9.35
2023-05-07T20:21:23.824Z,8.80
2023-05-07T20:23:52.154Z,8.73
2023-05-07T20:26:21.256Z,8.52
2023-05-07T20:28:49.659Z,8.82
2023-05-07T20:31:17.869Z,9.00
2023-05-07T20:33:45.975Z,9.02
2023-05-07T20:36:16.133Z,9.27
2023-05-07T20:38:44.304Z,7.90
2023-05-07T20:41:14.272Z,9.20
2023-05-07T20:43:42.346Z,8.60
2023-05-07T20:46:10.592Z,8.20
2023-05-07T20:48:38.722Z,8.35
2023-05-07T20:51:06.866Z,9.13
2023-05-07T20:53:37.465Z,9.05
2023-05-07T20:56:05.919Z,8.63
2023-05-07T20:58:34.017Z,9.05
2023-05-07T21:01:02.432Z,8.73
2023-05-07T21:03:30.616Z,8.20
2023-05-07T21:06:00.408Z,8.20
2023-05-07T21:08:28.821Z,8.93
2023-05-07T21:10:59.201Z,8.93
2023-05-07T21:13:27.578Z,8.35
2023-05-07T21:15:55.727Z,8.90
2023-05-07T21:18:26.566Z,9.02
2023-05-07T21:20:54.714Z,8.50
2023-05-07T21:23:22.842Z,8.55
2023-05-07T21:25:51.791Z,8.50
2023-05-07T21:28:21.176Z,8.65
2023-05-07T21:30:49.271Z,8.18
2023-05-07T21:33:17.372Z,9.15
2023-05-07T21:35:45.513Z,8.23
2023-05-07T21:38:13.923Z,8.50
2023-05-07T21:40:42.181Z,7.35
2023-05-07T21:43:10.468Z,7.70
2023-05-07T21:45:40.816Z,7.93
2023-05-07T21:48:08.964Z,7.28
2023-05-07T21:50:37.180Z,8.13
2023-05-07T21:53:05.264Z,7.93
2023-05-07T21:55:33.541Z,7.80
2023-05-07T21:58:05.916Z,8.27
2023-05-07T22:00:34.632Z,7.63
2023-05-07T22:03:04.315Z,8.13
2023-05-07T22:05:32.495Z,8.10
2023-05-07T22:08:01.108Z,8.32
2023-05-07T22:10:29.335Z,7.95
2023-05-07T22:12:57.593Z,8.20
2023-05-07T22:15:25.863Z,7.47
2023-05-07T22:17:57.102Z,8.25
2023-05-07T22:20:26.604Z,7.68
2023-05-07T22:22:57.479Z,7.93
2023-05-07T22:25:27.116Z,7.97
2023-05-07T22:27:55.213Z,8.43
2023-05-07T22:30:23.282Z,7.45
2023-05-07T22:32:51.619Z,8.18
2023-05-07T22:35:19.949Z,8.43
2023-05-07T22:37:49.484Z,8.13
2023-05-07T22:40:17.839Z,7.55
2023-05-07T22:42:45.920Z,8.07
2023-05-07T22:45:14.024Z,7.10
2023-05-07T22:47:42.276Z,6.78
2023-05-07T22:50:11.025Z,7.65
2023-05-07T22:52:40.322Z,7.78
2023-05-07T22:55:10.670Z,7.93
2023-05-07T22:57:38.758Z,7.38
2023-05-07T23:00:09.576Z,7.05
2023-05-07T23:02:37.890Z,7.72
2023-05-07T23:05:07.008Z,7.53
2023-05-07T23:07:35.259Z,7.60
2023-05-07T23:10:03.384Z,7.20
2023-05-07T23:12:32.956Z,6.72
2023-05-07T23:15:01.054Z,7.35
2023-05-07T23:17:29.620Z,7.32
2023-05-07T23:19:57.776Z,7.07
2023-05-07T23:22:36.067Z,7.00
2023-05-07T23:25:04.530Z,6.80
2023-05-07T23:27:33.933Z,6.80
2023-05-07T23:30:02.095Z,7.13
2023-05-07T23:32:32.219Z,6.25
2023-05-07T23:35:00.297Z,6.93
2023-05-07T23:37:28.362Z,6.60
2023-05-07T23:39:56.868Z,6.38
2023-05-07T23:42:25.600Z,7.32
2023-05-07T23:44:55.023Z,7.03
2023-05-07T23:47:23.826Z,6.32
2023-05-07T23:49:51.984Z,6.30
2023-05-07T23:52:20.914Z,6.45
2023-05-07T23:54:49.016Z,6.45
2023-05-07T23:57:17.276Z,6.20
2023-05-07T23:59:45.336Z,6.65
